sensor_id;sensor_type;location;lat;lon;timestamp;pressure;altitude;pressure_sealevel;temperature;humidity
55317;BME280;41178;48.956;8.130;2022-12-18T00:04:30;100962.69;;;-9.12;58.63
55317;BME280;41178;48.956;8.130;2022-12-18T00:09:32;100812.19;;;-7.96;57.89
55317;BME280;41178;48.956;8.130;2022-12-18T00:14:41;100912.25;;;-8.95;59.03
55317;BME280;41178;48.956;8.130;2022-12-18T00:19:42;100782.59;;;-7.92;57.72
55317;BME280;41178;48.956;8.130;2022-12-18T00:24:44;100745.91;;;-7.20;55.70
55317;BME280;41178;48.956;8.130;2022-12-18T00:29:45;100790.03;;;-7.16;55.21
55317;BME280;41178;48.956;8.130;2022-12-18T00:34:47;100953.56;;;-8.44;56.05
55317;BME280;41178;48.956;8.130;2022-12-18T00:39:49;100829.44;;;-7.61;55.35
55317;BME280;41178;48.956;8.130;2022-12-18T00:44:51;100812.81;;;-7.55;55.48
55317;BME280;41178;48.956;8.130;2022-12-18T00:49:53;100839.50;;;-7.48;54.85
55317;BME280;41178;48.956;8.130;2022-12-18T00:54:54;100816.13;;;-7.19;54.91
55317;BME280;41178;48.956;8.130;2022-12-18T00:59:56;100806.41;;;-7.43;55.38
55317;BME280;41178;48.956;8.130;2022-12-18T01:04:57;100754.97;;;-7.04;55.64
55317;BME280;41178;48.956;8.130;2022-12-18T01:09:59;100840.81;;;-7.65;56.03
55317;BME280;41178;48.956;8.130;2022-12-18T01:15:01;100853.72;;;-7.95;56.65
55317;BME280;41178;48.956;8.130;2022-12-18T01:20:04;100804.63;;;-7.73;57.03
55317;BME280;41178;48.956;8.130;2022-12-18T01:25:06;100871.59;;;-7.82;55.67
55317;BME280;41178;48.956;8.130;2022-12-18T01:30:08;100899.63;;;-8.33;56.93
55317;BME280;41178;48.956;8.130;2022-12-18T01:35:10;100881.06;;;-7.80;55.60
55317;BME280;41178;48.956;8.130;2022-12-18T01:40:12;100859.13;;;-7.70;55.48
55317;BME280;41178;48.956;8.130;2022-12-18T01:50:27;100874.34;;;-8.24;57.16
55317;BME280;41178;48.956;8.130;2022-12-18T01:55:32;100928.97;;;-8.68;57.61
55317;BME280;41178;48.956;8.130;2022-12-18T02:00:36;100817.88;;;-7.51;55.48
55317;BME280;41178;48.956;8.130;2022-12-18T02:06:01;100841.09;;;-7.43;54.86
55317;BME280;41178;48.956;8.130;2022-12-18T02:11:43;100935.78;;;-7.86;54.61
55317;BME280;41178;48.956;8.130;2022-12-18T02:27:05;100854.97;;;-7.44;54.30
55317;BME280;41178;48.956;8.130;2022-12-18T02:32:15;100902.72;;;-7.46;53.94
55317;BME280;41178;48.956;8.130;2022-12-18T02:37:19;100830.00;;;-7.20;54.10
55317;BME280;41178;48.956;8.130;2022-12-18T02:42:22;100817.47;;;-7.05;53.88
55317;BME280;41178;48.956;8.130;2022-12-18T02:47:30;100893.06;;;-7.41;53.80
55317;BME280;41178;48.956;8.130;2022-12-18T02:57:50;100922.19;;;-7.61;54.34
55317;BME280;41178;48.956;8.130;2022-12-18T03:03:01;100916.25;;;-7.34;53.46
55317;BME280;41178;48.956;8.130;2022-12-18T03:08:31;100914.81;;;-7.45;53.67
55317;BME280;41178;48.956;8.130;2022-12-18T03:13:45;100893.38;;;-7.21;53.26
55317;BME280;41178;48.956;8.130;2022-12-18T03:18:53;100902.28;;;-7.29;53.87
55317;BME280;41178;48.956;8.130;2022-12-18T03:23:56;100972.13;;;-7.50;53.42
55317;BME280;41178;48.956;8.130;2022-12-18T03:29:08;100909.03;;;-6.91;52.91
55317;BME280;41178;48.956;8.130;2022-12-18T03:34:15;100943.16;;;-7.35;53.05
55317;BME280;41178;48.956;8.130;2022-12-18T03:39:19;100978.94;;;-8.18;54.97
55317;BME280;41178;48.956;8.130;2022-12-18T03:44:44;100904.59;;;-7.86;55.04
55317;BME280;41178;48.956;8.130;2022-12-18T03:49:56;100893.16;;;-7.15;53.92
55317;BME280;41178;48.956;8.130;2022-12-18T03:55:01;100926.56;;;-7.63;54.31
55317;BME280;41178;48.956;8.130;2022-12-18T04:00:09;100879.06;;;-7.06;53.65
55317;BME280;41178;48.956;8.130;2022-12-18T04:05:12;100946.88;;;-7.79;55.04
55317;BME280;41178;48.956;8.130;2022-12-18T04:10:16;100921.53;;;-7.37;53.85
55317;BME280;41178;48.956;8.130;2022-12-18T04:15:18;100879.56;;;-6.93;53.08
55317;BME280;41178;48.956;8.130;2022-12-18T04:20:20;100857.91;;;-6.65;53.02
55317;BME280;41178;48.956;8.130;2022-12-18T04:25:22;101021.84;;;-8.00;53.87
55317;BME280;41178;48.956;8.130;2022-12-18T04:30:23;100942.19;;;-7.30;53.50
55317;BME280;41178;48.956;8.130;2022-12-18T04:35:25;101013.31;;;-8.05;54.59
55317;BME280;41178;48.956;8.130;2022-12-18T04:40:27;100982.38;;;-7.78;54.72
55317;BME280;41178;48.956;8.130;2022-12-18T04:45:30;101055.47;;;-9.26;57.96
55317;BME280;41178;48.956;8.130;2022-12-18T04:50:32;100972.31;;;-8.31;56.78
55317;BME280;41178;48.956;8.130;2022-12-18T04:55:33;100865.41;;;-7.45;56.28
55317;BME280;41178;48.956;8.130;2022-12-18T05:00:35;101017.31;;;-7.90;54.62
55317;BME280;41178;48.956;8.130;2022-12-18T05:05:37;101063.91;;;-8.67;56.66
55317;BME280;41178;48.956;8.130;2022-12-18T05:10:38;100926.91;;;-7.77;56.13
55317;BME280;41178;48.956;8.130;2022-12-18T05:15:40;101054.16;;;-8.54;56.08
55317;BME280;41178;48.956;8.130;2022-12-18T05:20:43;100940.28;;;-7.57;54.81
55317;BME280;41178;48.956;8.130;2022-12-18T05:25:59;100928.06;;;-7.89;56.25
55317;BME280;41178;48.956;8.130;2022-12-18T05:31:02;101094.44;;;-9.32;58.29
55317;BME280;41178;48.956;8.130;2022-12-18T05:36:07;100814.19;;;-6.82;54.57
55317;BME280;41178;48.956;8.130;2022-12-18T05:41:09;100902.59;;;-7.42;55.29
55317;BME280;41178;48.956;8.130;2022-12-18T05:46:14;100928.94;;;-7.89;56.33
55317;BME280;41178;48.956;8.130;2022-12-18T05:51:19;101048.69;;;-8.85;57.02
55317;BME280;41178;48.956;8.130;2022-12-18T05:56:22;100928.63;;;-7.76;55.92
55317;BME280;41178;48.956;8.130;2022-12-18T06:01:25;100944.84;;;-8.04;56.43
55317;BME280;41178;48.956;8.130;2022-12-18T06:06:28;101013.41;;;-8.50;56.70
55317;BME280;41178;48.956;8.130;2022-12-18T06:11:30;100901.72;;;-7.41;55.55
55317;BME280;41178;48.956;8.130;2022-12-18T06:16:32;100967.34;;;-7.65;55.19
55317;BME280;41178;48.956;8.130;2022-12-18T06:21:34;100906.75;;;-7.35;55.49
55317;BME280;41178;48.956;8.130;2022-12-18T06:26:38;100950.47;;;-7.49;55.04
55317;BME280;41178;48.956;8.130;2022-12-18T06:31:40;101039.84;;;-8.31;56.09
55317;BME280;41178;48.956;8.130;2022-12-18T06:36:42;100869.00;;;-7.18;55.35
55317;BME280;41178;48.956;8.130;2022-12-18T06:41:43;100995.16;;;-7.69;54.95
55317;BME280;41178;48.956;8.130;2022-12-18T06:46:46;100936.72;;;-6.90;53.93
55317;BME280;41178;48.956;8.130;2022-12-18T06:51:47;100902.16;;;-6.64;54.30
55317;BME280;41178;48.956;8.130;2022-12-18T06:56:49;100989.28;;;-7.08;54.08
55317;BME280;41178;48.956;8.130;2022-12-18T07:01:51;100924.44;;;-6.55;53.96
55317;BME280;41178;48.956;8.130;2022-12-18T07:06:53;100988.31;;;-7.04;54.78
55317;BME280;41178;48.956;8.130;2022-12-18T07:11:56;101032.81;;;-7.15;54.34
55317;BME280;41178;48.956;8.130;2022-12-18T07:16:58;101137.63;;;-8.29;56.06
55317;BME280;41178;48.956;8.130;2022-12-18T07:22:01;101049.31;;;-7.51;55.29
55317;BME280;41178;48.956;8.130;2022-12-18T07:27:03;100960.41;;;-6.68;53.98
55317;BME280;41178;48.956;8.130;2022-12-18T07:32:05;101057.78;;;-7.42;54.73
55317;BME280;41178;48.956;8.130;2022-12-18T07:37:09;100992.03;;;-7.15;55.44
55317;BME280;41178;48.956;8.130;2022-12-18T07:42:11;101047.09;;;-7.32;54.90
55317;BME280;41178;48.956;8.130;2022-12-18T07:47:34;101080.25;;;-7.77;56.01
55317;BME280;41178;48.956;8.130;2022-12-18T07:52:36;100945.50;;;-6.63;54.93
55317;BME280;41178;48.956;8.130;2022-12-18T07:57:37;101089.59;;;-7.31;54.33
55317;BME280;41178;48.956;8.130;2022-12-18T08:02:52;101004.84;;;-6.74;54.60
55317;BME280;41178;48.956;8.130;2022-12-18T08:07:54;101035.25;;;-7.07;55.33
55317;BME280;41178;48.956;8.130;2022-12-18T08:12:57;101059.69;;;-7.49;56.21
55317;BME280;41178;48.956;8.130;2022-12-18T08:18:05;101025.44;;;-6.98;54.99
55317;BME280;41178;48.956;8.130;2022-12-18T08:23:13;101185.94;;;-8.20;55.75
55317;BME280;41178;48.956;8.130;2022-12-18T08:28:14;101127.91;;;-8.19;57.34
55317;BME280;41178;48.956;8.130;2022-12-18T08:33:16;101081.28;;;-7.84;56.93
55317;BME280;41178;48.956;8.130;2022-12-18T08:38:18;101098.47;;;-8.19;57.40
55317;BME280;41178;48.956;8.130;2022-12-18T08:43:20;101036.63;;;-8.02;57.77
55317;BME280;41178;48.956;8.130;2022-12-18T08:48:41;100957.19;;;-7.07;56.11
55317;BME280;41178;48.956;8.130;2022-12-18T08:53:43;101005.00;;;-8.21;58.87
55317;BME280;41178;48.956;8.130;2022-12-18T08:58:45;100983.03;;;-7.34;56.90
55317;BME280;41178;48.956;8.130;2022-12-18T09:03:48;100967.88;;;-6.87;55.95
55317;BME280;41178;48.956;8.130;2022-12-18T09:08:50;100950.41;;;-6.24;54.44
55317;BME280;41178;48.956;8.130;2022-12-18T09:13:53;101085.63;;;-7.46;55.89
55317;BME280;41178;48.956;8.130;2022-12-18T09:18:55;100985.34;;;-6.90;55.91
55317;BME280;41178;48.956;8.130;2022-12-18T09:24:01;101088.16;;;-8.68;60.12
55317;BME280;41178;48.956;8.130;2022-12-18T09:29:03;101037.78;;;-7.76;58.23
55317;BME280;41178;48.956;8.130;2022-12-18T09:34:05;101015.75;;;-7.60;58.30
55317;BME280;41178;48.956;8.130;2022-12-18T09:39:06;101074.44;;;-7.87;57.47
55317;BME280;41178;48.956;8.130;2022-12-18T09:49:22;101086.59;;;-8.31;59.77
55317;BME280;41178;48.956;8.130;2022-12-18T09:54:38;101088.97;;;-7.80;57.63
55317;BME280;41178;48.956;8.130;2022-12-18T09:59:50;101171.69;;;-8.46;57.87
55317;BME280;41178;48.956;8.130;2022-12-18T10:05:04;100999.56;;;-7.04;56.63
55317;BME280;41178;48.956;8.130;2022-12-18T10:10:23;101036.69;;;-7.32;56.79
55317;BME280;41178;48.956;8.130;2022-12-18T10:21:21;101064.34;;;-7.63;57.34
55317;BME280;41178;48.956;8.130;2022-12-18T10:26:25;100963.09;;;-6.41;55.69
55317;BME280;41178;48.956;8.130;2022-12-18T10:31:27;101104.31;;;-7.67;57.11
55317;BME280;41178;48.956;8.130;2022-12-18T10:36:29;100992.88;;;-7.12;57.92
55317;BME280;41178;48.956;8.130;2022-12-18T10:41:31;101046.84;;;-6.88;55.93
55317;BME280;41178;48.956;8.130;2022-12-18T10:46:33;101103.94;;;-7.91;58.63
55317;BME280;41178;48.956;8.130;2022-12-18T10:51:36;100887.22;;;-6.30;57.39
55317;BME280;41178;48.956;8.130;2022-12-18T10:56:39;101137.19;;;-8.52;59.84
55317;BME280;41178;48.956;8.130;2022-12-18T11:06:21;100936.03;;;-7.61;60.88
55317;BME280;41178;48.956;8.130;2022-12-18T11:11:26;101095.28;;;-8.79;62.38
55317;BME280;41178;48.956;8.130;2022-12-18T11:16:30;100943.47;;;-7.81;61.34
55317;BME280;41178;48.956;8.130;2022-12-18T11:21:39;101114.56;;;-8.94;62.16
55317;BME280;41178;48.956;8.130;2022-12-18T11:26:42;101017.53;;;-8.01;60.16
55317;BME280;41178;48.956;8.130;2022-12-18T11:31:44;100993.75;;;-7.84;60.49
55317;BME280;41178;48.956;8.130;2022-12-18T11:36:47;100925.59;;;-7.26;59.69
55317;BME280;41178;48.956;8.130;2022-12-18T11:41:56;100947.78;;;-7.46;60.04
55317;BME280;41178;48.956;8.130;2022-12-18T11:52:38;100909.31;;;-7.02;59.41
55317;BME280;41178;48.956;8.130;2022-12-18T12:14:03;100990.13;;;-7.75;60.72
55317;BME280;41178;48.956;8.130;2022-12-18T12:40:19;100860.69;;;-6.71;59.68
55317;BME280;41178;48.956;8.130;2022-12-18T12:46:07;100962.41;;;-8.12;62.38
55317;BME280;41178;48.956;8.130;2022-12-18T12:51:20;100926.31;;;-7.54;61.60
55317;BME280;41178;48.956;8.130;2022-12-18T12:56:25;100989.66;;;-7.94;60.86
55317;BME280;41178;48.956;8.130;2022-12-18T13:01:41;100865.78;;;-7.59;61.85
55317;BME280;41178;48.956;8.130;2022-12-18T13:07:01;100865.13;;;-7.35;61.03
55317;BME280;41178;48.956;8.130;2022-12-18T13:12:10;100878.34;;;-7.42;60.58
55317;BME280;41178;48.956;8.130;2022-12-18T13:17:35;100873.03;;;-7.38;60.75
55317;BME280;41178;48.956;8.130;2022-12-18T13:22:48;100945.84;;;-7.72;60.50
55317;BME280;41178;48.956;8.130;2022-12-18T13:43:34;100907.34;;;-7.92;61.86
55317;BME280;41178;48.956;8.130;2022-12-18T13:48:38;100902.03;;;-8.23;63.33
55317;BME280;41178;48.956;8.130;2022-12-18T13:53:48;100993.22;;;-9.26;64.79
55317;BME280;41178;48.956;8.130;2022-12-18T14:09:28;100920.22;;;-8.23;62.39
55317;BME280;41178;48.956;8.130;2022-12-18T14:14:33;100817.22;;;-7.90;62.99
55317;BME280;41178;48.956;8.130;2022-12-18T14:19:35;100808.25;;;-7.47;61.32
55317;BME280;41178;48.956;8.130;2022-12-18T14:24:37;100923.63;;;-8.21;62.34
55317;BME280;41178;48.956;8.130;2022-12-18T14:29:42;100887.13;;;-8.15;62.64
55317;BME280;41178;48.956;8.130;2022-12-18T14:34:50;100820.41;;;-7.80;62.59
55317;BME280;41178;48.956;8.130;2022-12-18T14:40:01;100732.69;;;-7.12;61.56
55317;BME280;41178;48.956;8.130;2022-12-18T14:45:37;100857.72;;;-7.50;60.36
55317;BME280;41178;48.956;8.130;2022-12-18T14:50:44;100796.59;;;-7.34;60.98
55317;BME280;41178;48.956;8.130;2022-12-18T14:55:47;100779.91;;;-6.97;59.92
55317;BME280;41178;48.956;8.130;2022-12-18T15:00:49;100825.16;;;-7.32;60.16
55317;BME280;41178;48.956;8.130;2022-12-18T15:05:51;100834.44;;;-7.53;60.86
55317;BME280;41178;48.956;8.130;2022-12-18T15:10:53;100724.97;;;-6.61;59.81
55317;BME280;41178;48.956;8.130;2022-12-18T15:15:58;100880.50;;;-7.93;61.36
55317;BME280;41178;48.956;8.130;2022-12-18T15:21:10;100864.38;;;-7.71;60.47
55317;BME280;41178;48.956;8.130;2022-12-18T15:26:15;100790.03;;;-6.87;59.35
55317;BME280;41178;48.956;8.130;2022-12-18T15:36:32;100865.25;;;-7.72;60.69
55317;BME280;41178;48.956;8.130;2022-12-18T15:41:37;100809.56;;;-7.32;60.42
55317;BME280;41178;48.956;8.130;2022-12-18T15:46:39;100813.50;;;-7.48;60.96
55317;BME280;41178;48.956;8.130;2022-12-18T15:51:41;100876.84;;;-8.20;62.21
55317;BME280;41178;48.956;8.130;2022-12-18T15:56:43;100874.03;;;-8.11;62.02
55317;BME280;41178;48.956;8.130;2022-12-18T16:02:11;100823.72;;;-7.42;60.20
55317;BME280;41178;48.956;8.130;2022-12-18T16:07:18;100784.72;;;-6.84;58.86
55317;BME280;41178;48.956;8.130;2022-12-18T16:12:25;100799.34;;;-6.52;57.74
55317;BME280;41178;48.956;8.130;2022-12-18T16:17:27;100829.44;;;-7.00;58.77
55317;BME280;41178;48.956;8.130;2022-12-18T16:22:30;100851.28;;;-7.05;58.40
55317;BME280;41178;48.956;8.130;2022-12-18T16:27:31;100773.25;;;-5.98;57.00
55317;BME280;41178;48.956;8.130;2022-12-18T16:32:33;100879.56;;;-6.63;57.28
55317;BME280;41178;48.956;8.130;2022-12-18T16:37:34;100788.81;;;-5.72;56.10
55317;BME280;41178;48.956;8.130;2022-12-18T16:42:38;100795.41;;;-5.61;55.98
55317;BME280;41178;48.956;8.130;2022-12-18T16:47:40;100819.69;;;-5.59;55.39
55317;BME280;41178;48.956;8.130;2022-12-18T16:52:42;100812.16;;;-5.20;54.64
55317;BME280;41178;48.956;8.130;2022-12-18T16:57:44;100889.31;;;-6.42;56.96
55317;BME280;41178;48.956;8.130;2022-12-18T17:02:46;100838.06;;;-5.62;55.84
55317;BME280;41178;48.956;8.130;2022-12-18T17:07:48;100860.13;;;-5.98;56.09
55317;BME280;41178;48.956;8.130;2022-12-18T17:12:50;100826.31;;;-5.25;54.79
55317;BME280;41178;48.956;8.130;2022-12-18T17:17:51;100816.97;;;-5.33;55.02
55317;BME280;41178;48.956;8.130;2022-12-18T17:22:54;100840.78;;;-5.17;54.20
55317;BME280;41178;48.956;8.130;2022-12-18T17:27:57;100916.22;;;-6.13;56.12
55317;BME280;41178;48.956;8.130;2022-12-18T17:32:58;100836.13;;;-5.32;55.34
55317;BME280;41178;48.956;8.130;2022-12-18T17:38:00;100863.03;;;-5.55;55.27
55317;BME280;41178;48.956;8.130;2022-12-18T17:43:02;100787.31;;;-4.84;54.71
55317;BME280;41178;48.956;8.130;2022-12-18T17:48:04;100848.59;;;-5.17;54.32
55317;BME280;41178;48.956;8.130;2022-12-18T17:53:06;100891.53;;;-5.76;54.89
55317;BME280;41178;48.956;8.130;2022-12-18T17:58:08;100934.41;;;-6.11;55.50
55317;BME280;41178;48.956;8.130;2022-12-18T18:03:10;100876.88;;;-5.80;56.07
55317;BME280;41178;48.956;8.130;2022-12-18T18:08:12;100805.41;;;-5.02;55.08
55317;BME280;41178;48.956;8.130;2022-12-18T18:13:21;100890.06;;;-6.10;57.03
55317;BME280;41178;48.956;8.130;2022-12-18T18:18:47;100812.34;;;-4.57;53.82
55317;BME280;41178;48.956;8.130;2022-12-18T18:23:49;100901.38;;;-5.84;56.60
55317;BME280;41178;48.956;8.130;2022-12-18T18:28:53;100896.97;;;-5.82;55.87
55317;BME280;41178;48.956;8.130;2022-12-18T18:33:55;100904.03;;;-6.12;56.95
55317;BME280;41178;48.956;8.130;2022-12-18T18:38:58;100860.19;;;-5.74;56.48
55317;BME280;41178;48.956;8.130;2022-12-18T18:44:00;100878.69;;;-5.82;56.47
55317;BME280;41178;48.956;8.130;2022-12-18T18:49:02;100894.44;;;-6.12;57.11
55317;BME280;41178;48.956;8.130;2022-12-18T18:54:05;100852.31;;;-5.98;57.50
55317;BME280;41178;48.956;8.130;2022-12-18T18:59:07;100828.72;;;-5.95;58.03
55317;BME280;41178;48.956;8.130;2022-12-18T19:04:09;100817.31;;;-5.42;56.21
55317;BME280;41178;48.956;8.130;2022-12-18T19:09:11;100873.75;;;-5.65;55.99
55317;BME280;41178;48.956;8.130;2022-12-18T19:14:14;100808.94;;;-5.03;55.35
55317;BME280;41178;48.956;8.130;2022-12-18T19:19:16;100808.22;;;-4.84;54.40
55317;BME280;41178;48.956;8.130;2022-12-18T19:24:23;100789.56;;;-4.75;54.61
55317;BME280;41178;48.956;8.130;2022-12-18T19:29:25;100792.38;;;-4.58;54.31
55317;BME280;41178;48.956;8.130;2022-12-18T19:34:27;100840.03;;;-4.97;54.88
55317;BME280;41178;48.956;8.130;2022-12-18T19:39:28;100921.56;;;-7.05;59.24
55317;BME280;41178;48.956;8.130;2022-12-18T19:44:30;100895.56;;;-6.47;59.45
55317;BME280;41178;48.956;8.130;2022-12-18T19:49:32;100835.59;;;-5.18;56.66
55317;BME280;41178;48.956;8.130;2022-12-18T19:54:35;100832.06;;;-5.17;56.45
55317;BME280;41178;48.956;8.130;2022-12-18T19:59:36;100754.00;;;-4.15;55.04
55317;BME280;41178;48.956;8.130;2022-12-18T20:04:39;100789.97;;;-4.42;55.38
55317;BME280;41178;48.956;8.130;2022-12-18T20:09:41;100845.41;;;-4.78;55.21
55317;BME280;41178;48.956;8.130;2022-12-18T20:14:43;100822.78;;;-4.57;55.55
55317;BME280;41178;48.956;8.130;2022-12-18T20:19:45;100817.28;;;-4.49;55.73
55317;BME280;41178;48.956;8.130;2022-12-18T20:24:47;100811.25;;;-4.29;55.59
55317;BME280;41178;48.956;8.130;2022-12-18T20:29:50;100814.06;;;-4.56;56.23
55317;BME280;41178;48.956;8.130;2022-12-18T20:34:52;100813.25;;;-4.36;55.90
55317;BME280;41178;48.956;8.130;2022-12-18T20:39:54;100815.22;;;-4.85;56.94
55317;BME280;41178;48.956;8.130;2022-12-18T20:44:56;100868.69;;;-5.19;57.38
55317;BME280;41178;48.956;8.130;2022-12-18T20:49:58;100837.53;;;-5.00;56.81
55317;BME280;41178;48.956;8.130;2022-12-18T20:55:01;100769.75;;;-3.75;54.71
55317;BME280;41178;48.956;8.130;2022-12-18T21:00:03;100861.50;;;-5.12;57.05
55317;BME280;41178;48.956;8.130;2022-12-18T21:05:05;100876.50;;;-5.94;59.79
55317;BME280;41178;48.956;8.130;2022-12-18T21:10:07;100819.66;;;-5.34;59.14
55317;BME280;41178;48.956;8.130;2022-12-18T21:15:09;100839.28;;;-5.48;58.52
55317;BME280;41178;48.956;8.130;2022-12-18T21:20:12;100762.59;;;-4.33;56.35
55317;BME280;41178;48.956;8.130;2022-12-18T21:25:18;100789.19;;;-4.44;56.04
55317;BME280;41178;48.956;8.130;2022-12-18T21:30:20;100802.38;;;-4.91;56.86
55317;BME280;41178;48.956;8.130;2022-12-18T21:35:21;100789.41;;;-5.16;58.14
55317;BME280;41178;48.956;8.130;2022-12-18T21:40:26;100795.75;;;-5.00;58.67
55317;BME280;41178;48.956;8.130;2022-12-18T21:45:28;100783.31;;;-4.49;56.71
55317;BME280;41178;48.956;8.130;2022-12-18T21:50:29;100752.69;;;-4.25;56.23
55317;BME280;41178;48.956;8.130;2022-12-18T21:55:31;100778.38;;;-4.14;55.71
55317;BME280;41178;48.956;8.130;2022-12-18T22:00:32;100769.03;;;-3.79;55.19
55317;BME280;41178;48.956;8.130;2022-12-18T22:05:34;100826.06;;;-4.74;56.96
55317;BME280;41178;48.956;8.130;2022-12-18T22:10:36;100805.47;;;-4.37;55.87
55317;BME280;41178;48.956;8.130;2022-12-18T22:15:38;100734.66;;;-3.71;56.03
55317;BME280;41178;48.956;8.130;2022-12-18T22:20:40;100804.03;;;-4.44;57.33
55317;BME280;41178;48.956;8.130;2022-12-18T22:25:42;100828.75;;;-4.31;55.89
55317;BME280;41178;48.956;8.130;2022-12-18T22:30:44;100778.84;;;-3.84;56.18
55317;BME280;41178;48.956;8.130;2022-12-18T22:35:45;100801.44;;;-4.24;56.34
55317;BME280;41178;48.956;8.130;2022-12-18T22:40:48;100809.81;;;-4.16;56.67
55317;BME280;41178;48.956;8.130;2022-12-18T22:45:52;100789.75;;;-3.94;55.69
55317;BME280;41178;48.956;8.130;2022-12-18T22:50:54;100871.97;;;-5.14;57.95
55317;BME280;41178;48.956;8.130;2022-12-18T22:56:00;100883.09;;;-4.85;56.66
55317;BME280;41178;48.956;8.130;2022-12-18T23:01:03;100910.13;;;-5.60;59.71
55317;BME280;41178;48.956;8.130;2022-12-18T23:06:06;100830.22;;;-4.68;57.55
55317;BME280;41178;48.956;8.130;2022-12-18T23:11:08;100788.84;;;-4.14;56.93
55317;BME280;41178;48.956;8.130;2022-12-18T23:16:12;100832.41;;;-4.57;57.23
55317;BME280;41178;48.956;8.130;2022-12-18T23:21:17;100745.56;;;-3.80;57.00
55317;BME280;41178;48.956;8.130;2022-12-18T23:26:22;100839.22;;;-4.53;56.93
55317;BME280;41178;48.956;8.130;2022-12-18T23:31:27;100753.69;;;-3.67;55.83
55317;BME280;41178;48.956;8.130;2022-12-18T23:36:29;100798.78;;;-4.22;56.79
55317;BME280;41178;48.956;8.130;2022-12-18T23:41:38;100797.59;;;-4.15;56.50
55317;BME280;41178;48.956;8.130;2022-12-18T23:46:39;100739.41;;;-4.00;57.61
55317;BME280;41178;48.956;8.130;2022-12-18T23:51:41;100742.09;;;-3.81;56.42
55317;BME280;41178;48.956;8.130;2022-12-18T23:56:43;100774.19;;;-4.18;57.20
